Time;durP1;ratioP1;P1;durP2;ratioP2;P2;SDS_P1;SDS_P2;PMS_P1;PMS_P2;Temp;Humidity;BMP_temperature;BMP_pressure;BME280_temperature;BME280_humidity;BME280_pressure;Samples;Min_cycle;Max_cycle;Signal;HPM_P1;HPM_P2
2021/05/22 00:04:22;;;;;;;1.23;0.60;;;12.50;43.50;;;;;;10378677;28;20250;-68
2021/05/22 00:09:25;;;;;;;0.60;0.60;;;12.50;43.30;;;;;;10385415;28;20328;-68
2021/05/22 00:14:28;;;;;;;0.70;0.70;;;12.50;43.40;;;;;;10380778;28;20248;-68
2021/05/22 00:19:31;;;;;;;0.67;0.63;;;12.40;43.50;;;;;;10377801;28;20801;-68
2021/05/22 00:24:34;;;;;;;1.00;0.80;;;12.40;43.30;;;;;;10383653;28;20345;-68
2021/05/22 00:29:37;;;;;;;0.67;0.50;;;12.40;43.30;;;;;;10384936;28;20245;-68
2021/05/22 00:34:40;;;;;;;0.70;0.70;;;12.40;43.60;;;;;;10380580;28;20264;-68
2021/05/22 00:39:43;;;;;;;0.90;0.67;;;12.40;43.20;;;;;;10391341;28;20312;-68
2021/05/22 00:45:09;;;;;;;0.60;0.60;;;12.30;43.20;;;;;;10391040;28;20236;-68
2021/05/22 00:50:16;;;;;;;0.60;0.60;;;12.30;43.80;;;;;;10386778;28;20222;-68
2021/05/22 00:55:19;;;;;;;0.60;0.60;;;12.30;44.00;;;;;;10385116;28;20240;-68
2021/05/22 01:00:37;;;;;;;1.73;1.20;;;12.20;43.40;;;;;;10385064;28;20228;-68
2021/05/22 01:05:42;;;;;;;0.60;0.60;;;12.10;44.50;;;;;;10384609;28;20240;-68
2021/05/22 01:10:49;;;;;;;0.50;0.50;;;12.10;43.90;;;;;;10386372;28;20247;-68
2021/05/22 01:15:55;;;;;;;0.93;0.60;;;12.00;43.90;;;;;;10386151;28;20710;-67
2021/05/22 01:21:00;;;;;;;0.60;0.60;;;11.90;44.10;;;;;;10389187;28;20729;-67
2021/05/22 01:26:04;;;;;;;0.60;0.60;;;11.90;44.00;;;;;;10385798;28;20234;-67
2021/05/22 01:31:08;;;;;;;1.13;0.50;;;11.90;44.20;;;;;;10385157;28;20346;-67
2021/05/22 01:36:11;;;;;;;0.50;0.50;;;11.90;43.90;;;;;;10380315;28;20222;-67
2021/05/22 01:41:15;;;;;;;0.50;0.50;;;11.90;43.70;;;;;;10382204;28;20770;-67
2021/05/22 01:46:18;;;;;;;0.93;0.53;;;11.80;43.80;;;;;;10382597;28;20312;-67
2021/05/22 01:51:24;;;;;;;1.10;0.60;;;11.80;43.70;;;;;;10381341;28;20241;-67
2021/05/22 01:56:28;;;;;;;0.50;0.50;;;11.80;43.70;;;;;;10379986;28;20309;-67
2021/05/22 02:01:31;;;;;;;0.47;0.47;;;11.80;43.70;;;;;;10382355;28;20869;-67
2021/05/22 02:06:38;;;;;;;0.40;0.40;;;11.80;43.60;;;;;;10381701;28;20229;-67
2021/05/22 02:11:43;;;;;;;0.50;0.50;;;11.80;43.70;;;;;;10379072;28;20679;-67
2021/05/22 02:16:49;;;;;;;0.40;0.40;;;11.80;43.70;;;;;;10385186;28;20749;-67
2021/05/22 02:21:54;;;;;;;0.50;0.50;;;11.80;43.60;;;;;;10386153;28;20656;-67
2021/05/22 02:26:58;;;;;;;0.40;0.40;;;11.80;43.40;;;;;;10383441;28;20317;-67
2021/05/22 02:32:03;;;;;;;0.40;0.40;;;11.70;43.70;;;;;;10379854;28;20313;-67
2021/05/22 02:37:07;;;;;;;0.50;0.40;;;11.70;43.40;;;;;;10383783;28;20264;-67
2021/05/22 02:42:14;;;;;;;0.63;0.40;;;11.70;43.50;;;;;;10381467;28;20284;-67
2021/05/22 02:47:19;;;;;;;0.40;0.40;;;11.60;43.50;;;;;;10382765;28;20261;-67
2021/05/22 02:52:22;;;;;;;0.40;0.40;;;11.60;43.50;;;;;;10378625;28;20252;-67
2021/05/22 02:57:27;;;;;;;0.50;0.50;;;11.60;43.30;;;;;;10387924;28;20254;-67
2021/05/22 03:02:30;;;;;;;0.53;0.50;;;11.70;43.40;;;;;;10374171;28;20318;-67
2021/05/22 03:07:33;;;;;;;0.40;0.40;;;11.70;43.10;;;;;;10380410;28;20237;-67
2021/05/22 03:12:37;;;;;;;0.40;0.40;;;11.60;43.00;;;;;;10381081;28;20314;-67
2021/05/22 03:17:40;;;;;;;0.40;0.40;;;11.70;43.40;;;;;;10384385;28;20254;-67
2021/05/22 03:22:43;;;;;;;0.40;0.40;;;11.70;43.00;;;;;;10380018;28;20226;-67
2021/05/22 03:27:46;;;;;;;0.40;0.40;;;11.70;43.00;;;;;;10380224;28;20248;-67
2021/05/22 03:32:49;;;;;;;0.40;0.40;;;11.70;43.00;;;;;;10379384;28;20701;-67
2021/05/22 03:37:52;;;;;;;0.40;0.40;;;11.70;42.80;;;;;;10380909;28;20314;-67
2021/05/22 03:42:56;;;;;;;0.47;0.40;;;11.70;42.90;;;;;;10378314;28;20229;-67
2021/05/22 03:47:59;;;;;;;0.40;0.40;;;11.70;42.90;;;;;;10384256;28;21245;-67
2021/05/22 03:53:01;;;;;;;0.60;0.60;;;11.70;42.70;;;;;;10353225;28;20624;-67
2021/05/22 03:58:06;;;;;;;0.50;0.50;;;11.80;42.80;;;;;;10355695;28;20285;-67
2021/05/22 04:03:09;;;;;;;0.70;0.50;;;11.90;42.80;;;;;;10365309;28;20722;-67
2021/05/22 04:08:12;;;;;;;0.40;0.40;;;11.90;42.40;;;;;;10366516;28;20301;-67
2021/05/22 04:13:16;;;;;;;0.43;0.43;;;11.90;42.60;;;;;;10371277;28;20264;-67
2021/05/22 04:18:18;;;;;;;0.40;0.40;;;12.00;42.60;;;;;;10359796;28;20309;-67
2021/05/22 04:23:21;;;;;;;0.50;0.50;;;12.00;42.40;;;;;;10379218;28;20276;-67
2021/05/22 04:28:25;;;;;;;0.57;0.50;;;12.00;42.40;;;;;;10389329;28;20324;-67
2021/05/22 04:33:28;;;;;;;0.40;0.40;;;12.00;42.40;;;;;;10389802;28;20694;-67
2021/05/22 04:38:31;;;;;;;0.90;0.90;;;12.10;42.30;;;;;;10395941;28;20254;-67
2021/05/22 04:43:34;;;;;;;1.17;0.80;;;12.20;42.20;;;;;;10390193;28;20229;-67
2021/05/22 04:48:37;;;;;;;0.70;0.70;;;12.20;42.00;;;;;;10387880;28;20679;-67
2021/05/22 04:53:40;;;;;;;1.07;1.00;;;12.20;42.10;;;;;;10385804;28;20833;-67
2021/05/22 04:58:43;;;;;;;0.90;0.90;;;12.20;42.20;;;;;;10384435;28;20309;-67
2021/05/22 05:03:46;;;;;;;0.60;0.60;;;12.20;42.20;;;;;;10386585;28;20312;-67
2021/05/22 05:08:49;;;;;;;0.60;0.60;;;12.20;42.00;;;;;;10390558;28;20308;-67
2021/05/22 05:13:53;;;;;;;0.60;0.60;;;12.20;42.30;;;;;;10389789;28;20261;-67
2021/05/22 05:18:56;;;;;;;0.77;0.70;;;12.20;42.60;;;;;;10380320;28;20272;-67
2021/05/22 05:23:58;;;;;;;2.13;1.80;;;12.30;42.50;;;;;;10388181;28;20316;-67
2021/05/22 05:29:03;;;;;;;0.63;0.60;;;12.40;42.30;;;;;;10381127;28;20321;-67
2021/05/22 05:34:06;;;;;;;1.03;0.60;;;12.40;42.30;;;;;;10393143;28;20300;-67
2021/05/22 05:39:10;;;;;;;0.50;0.50;;;12.40;42.50;;;;;;10391540;28;20672;-67
2021/05/22 05:44:14;;;;;;;0.80;0.50;;;12.40;42.60;;;;;;10383522;28;20317;-67
2021/05/22 05:49:16;;;;;;;1.10;0.60;;;12.40;42.50;;;;;;10380708;28;20325;-67
2021/05/22 05:54:19;;;;;;;0.70;0.70;;;12.40;42.40;;;;;;10381841;28;20333;-67
2021/05/22 05:59:23;;;;;;;0.70;0.70;;;12.40;42.60;;;;;;10383140;28;20276;-67
2021/05/22 06:04:25;;;;;;;0.93;0.60;;;12.50;42.80;;;;;;10383620;28;20259;-67
2021/05/22 06:09:28;;;;;;;0.60;0.60;;;12.50;42.40;;;;;;10379437;28;20230;-67
2021/05/22 06:14:34;;;;;;;0.70;0.60;;;12.50;42.20;;;;;;10380574;28;20225;-67
2021/05/22 06:19:38;;;;;;;0.50;0.50;;;12.60;42.20;;;;;;10394011;28;20214;-66
2021/05/22 06:24:41;;;;;;;0.60;0.60;;;12.60;42.70;;;;;;10383238;28;20717;-67
2021/05/22 06:29:44;;;;;;;0.60;0.60;;;12.60;42.80;;;;;;10382132;28;20321;-67
2021/05/22 06:34:47;;;;;;;1.67;0.70;;;12.70;43.10;;;;;;10386523;28;20522;-67
2021/05/22 06:39:50;;;;;;;0.60;0.60;;;12.90;43.80;;;;;;10379317;28;20280;-67
2021/05/22 06:45:01;;;;;;;0.70;0.70;;;13.00;43.10;;;;;;10384002;28;20233;-67
2021/05/22 06:50:04;;;;;;;1.50;0.70;;;13.20;42.80;;;;;;10383317;28;20304;-67
2021/05/22 06:55:08;;;;;;;0.87;0.67;;;13.30;42.80;;;;;;10384726;28;20602;-67
2021/05/22 07:00:14;;;;;;;2.70;0.70;;;13.50;43.00;;;;;;10388286;28;20825;-66
2021/05/22 07:05:17;;;;;;;1.13;0.60;;;13.60;43.10;;;;;;10385102;28;20238;-67
2021/05/22 07:10:20;;;;;;;1.07;0.80;;;13.80;43.30;;;;;;10388140;28;20313;-67
2021/05/22 07:15:24;;;;;;;2.53;1.00;;;14.00;43.00;;;;;;10394036;28;20228;-67
2021/05/22 07:20:27;;;;;;;0.70;0.70;;;14.10;42.90;;;;;;10387912;28;20309;-67
2021/05/22 07:25:30;;;;;;;2.33;0.70;;;14.30;42.60;;;;;;10386681;28;20234;-67
2021/05/22 07:30:34;;;;;;;1.63;0.90;;;14.50;42.50;;;;;;10390345;28;20301;-67
2021/05/22 07:35:37;;;;;;;2.20;1.20;;;14.70;42.70;;;;;;10380365;28;20228;-67
2021/05/22 07:40:40;;;;;;;1.90;1.70;;;14.90;42.60;;;;;;10390733;28;20228;-67
2021/05/22 07:45:43;;;;;;;3.60;1.90;;;15.10;42.60;;;;;;10398708;28;20241;-67
2021/05/22 07:50:46;;;;;;;2.07;1.10;;;15.30;42.40;;;;;;10385345;28;20218;-67
2021/05/22 07:55:49;;;;;;;2.37;0.90;;;15.50;41.80;;;;;;10386152;28;20304;-67
2021/05/22 08:00:53;;;;;;;1.23;1.07;;;15.60;41.40;;;;;;10398523;28;20229;-67
2021/05/22 08:05:56;;;;;;;1.47;0.87;;;15.80;41.00;;;;;;10395335;28;20761;-69
2021/05/22 08:10:59;;;;;;;2.90;1.00;;;16.00;40.90;;;;;;10390880;28;20826;-67
2021/05/22 08:16:02;;;;;;;1.40;0.90;;;16.20;40.40;;;;;;10400851;28;20320;-67
2021/05/22 08:21:06;;;;;;;2.33;0.87;;;16.30;40.00;;;;;;10392507;28;20362;-68
2021/05/22 08:26:09;;;;;;;1.70;0.90;;;16.40;40.00;;;;;;10398936;28;20214;-68
2021/05/22 08:31:37;;;;;;;3.27;1.40;;;16.50;40.50;;;;;;10395426;28;20222;-68
2021/05/22 08:36:39;;;;;;;1.03;0.90;;;16.50;40.00;;;;;;10385193;28;20226;-67
2021/05/22 08:41:43;;;;;;;4.00;1.17;;;16.80;40.20;;;;;;10378086;28;20279;-67
2021/05/22 08:46:47;;;;;;;2.77;1.20;;;17.00;38.90;;;;;;10363225;28;20237;-68
2021/05/22 08:51:50;;;;;;;2.37;0.90;;;17.10;37.70;;;;;;10385370;28;20304;-68
2021/05/22 08:56:52;;;;;;;1.73;1.00;;;17.10;38.40;;;;;;10396502;28;20320;-68
2021/05/22 09:01:57;;;;;;;1.40;0.97;;;17.20;37.80;;;;;;10396939;28;20218;-68
2021/05/22 09:07:04;;;;;;;1.60;0.90;;;17.30;36.80;;;;;;10398733;28;20275;-68
2021/05/22 09:12:08;;;;;;;2.40;0.93;;;17.50;36.20;;;;;;10392203;28;20229;-68
2021/05/22 09:17:14;;;;;;;3.07;1.00;;;17.50;35.80;;;;;;10407098;28;20253;-68
2021/05/22 09:22:23;;;;;;;2.00;0.80;;;17.70;34.50;;;;;;10388914;28;20226;-68
2021/05/22 09:27:31;;;;;;;1.13;0.77;;;17.70;34.50;;;;;;10394814;28;20226;-68
2021/05/22 09:32:34;;;;;;;2.40;1.20;;;17.80;34.60;;;;;;10388356;28;20222;-68
2021/05/22 09:37:45;;;;;;;2.03;1.00;;;17.70;34.50;;;;;;10391746;28;20222;-72
2021/05/22 09:42:48;;;;;;;3.10;1.20;;;17.60;33.40;;;;;;10389406;28;20308;-70
2021/05/22 09:47:52;;;;;;;1.57;0.83;;;17.50;35.10;;;;;;10410893;28;20253;-70
2021/05/22 09:52:55;;;;;;;2.73;1.10;;;17.60;34.40;;;;;;10406754;28;20748;-69
2021/05/22 09:57:57;;;;;;;3.00;1.30;;;17.80;34.60;;;;;;10403132;28;20259;-70
2021/05/22 10:03:01;;;;;;;1.90;0.90;;;17.90;34.70;;;;;;10404129;28;20658;-69
2021/05/22 10:08:05;;;;;;;2.97;0.97;;;18.00;34.70;;;;;;10364950;28;20222;-69
2021/05/22 10:13:09;;;;;;;1.13;0.80;;;18.10;34.80;;;;;;10396074;28;20226;-69
2021/05/22 10:18:13;;;;;;;1.33;0.90;;;18.20;34.20;;;;;;10402629;28;20279;-69
2021/05/22 10:23:16;;;;;;;1.87;0.90;;;18.20;33.70;;;;;;10386131;28;20261;-69
2021/05/22 10:28:19;;;;;;;5.00;1.20;;;18.20;34.70;;;;;;10393114;28;20229;-70
2021/05/22 10:33:24;;;;;;;1.63;0.97;;;18.30;33.70;;;;;;10397065;28;20245;-69
2021/05/22 10:38:42;;;;;;;1.63;1.00;;;18.40;33.30;;;;;;10403641;28;20229;-69
2021/05/22 10:43:46;;;;;;;3.00;1.10;;;18.50;33.70;;;;;;10391069;28;20636;-70
2021/05/22 10:49:00;;;;;;;3.77;1.40;;;18.60;33.70;;;;;;10402265;28;20308;-70
2021/05/22 10:54:10;;;;;;;1.73;1.43;;;18.80;32.60;;;;;;10390373;28;20292;-70
2021/05/22 10:59:15;;;;;;;2.53;1.10;;;18.90;32.30;;;;;;10387488;28;20322;-70
2021/05/22 11:04:38;;;;;;;4.73;1.00;;;19.00;32.60;;;;;;10388627;28;20328;-70
2021/05/22 11:09:46;;;;;;;2.03;0.90;;;19.10;31.80;;;;;;10384776;28;20247;-69
2021/05/22 11:14:52;;;;;;;1.80;0.90;;;19.10;31.10;;;;;;10394167;28;20280;-69
2021/05/22 11:20:17;;;;;;;1.53;0.93;;;19.20;32.20;;;;;;10393551;28;20802;-69
2021/05/22 11:25:21;;;;;;;1.80;0.80;;;19.20;31.70;;;;;;10398984;28;20256;-70
2021/05/22 11:30:44;;;;;;;1.80;0.80;;;19.40;32.30;;;;;;10398823;28;20279;-70
2021/05/22 11:35:50;;;;;;;1.80;1.07;;;19.50;31.70;;;;;;10389482;28;20253;-69
2021/05/22 11:40:53;;;;;;;1.03;0.67;;;19.60;31.00;;;;;;10392418;28;20281;-70
2021/05/22 11:45:58;;;;;;;1.23;0.80;;;19.60;31.10;;;;;;10400543;28;20233;-70
2021/05/22 11:51:24;;;;;;;0.93;0.80;;;19.60;30.60;;;;;;10395581;28;20224;-69
2021/05/22 11:56:29;;;;;;;2.10;1.00;;;19.70;31.20;;;;;;10386202;28;20241;-70
2021/05/22 12:01:35;;;;;;;1.30;0.80;;;19.70;30.20;;;;;;10387502;28;20320;-69
2021/05/22 12:06:40;;;;;;;2.83;0.93;;;19.60;30.50;;;;;;10387046;28;20226;-70
2021/05/22 12:12:00;;;;;;;1.57;0.80;;;19.60;30.10;;;;;;10397425;28;20599;-70
2021/05/22 12:17:03;;;;;;;1.83;0.90;;;19.60;30.10;;;;;;10394924;28;20332;-70
2021/05/22 12:22:07;;;;;;;1.10;0.77;;;19.70;30.80;;;;;;10407173;28;20230;-69
2021/05/22 12:27:13;;;;;;;2.93;0.90;;;19.90;29.70;;;;;;10405409;28;20264;-70
2021/05/22 12:32:16;;;;;;;4.57;1.23;;;20.00;29.20;;;;;;10406077;28;20680;-70
2021/05/22 12:37:22;;;;;;;2.20;1.00;;;20.00;30.00;;;;;;10390838;28;20317;-70
2021/05/22 12:42:26;;;;;;;1.23;0.80;;;20.10;29.30;;;;;;10413252;28;20710;-70
2021/05/22 12:47:37;;;;;;;3.50;0.87;;;20.10;29.20;;;;;;10396189;28;20317;-69
2021/05/22 12:52:51;;;;;;;2.07;0.80;;;20.10;27.80;;;;;;10410840;28;20252;-70
2021/05/22 12:57:53;;;;;;;0.93;0.70;;;20.20;28.50;;;;;;10394568;28;20843;-70
2021/05/22 13:02:57;;;;;;;2.37;0.80;;;20.30;29.40;;;;;;10395294;28;20610;-70
2021/05/22 13:08:03;;;;;;;1.47;0.83;;;20.40;28.60;;;;;;10401191;28;20257;-70
2021/05/22 13:13:09;;;;;;;1.77;1.00;;;20.50;27.90;;;;;;10390848;28;20226;-70
2021/05/22 13:18:14;;;;;;;2.03;1.17;;;20.60;28.10;;;;;;10395934;28;20249;-70
2021/05/22 13:23:20;;;;;;;2.70;1.90;;;20.70;28.10;;;;;;10404334;28;20232;-70
2021/05/22 13:28:24;;;;;;;1.97;0.90;;;20.80;27.40;;;;;;10395163;28;20234;-70
2021/05/22 13:33:35;;;;;;;2.60;1.00;;;20.80;27.80;;;;;;10394903;28;20263;-70
2021/05/22 13:38:40;;;;;;;1.90;0.80;;;20.80;26.30;;;;;;10391791;28;20225;-70
2021/05/22 13:43:43;;;;;;;1.30;0.80;;;20.90;26.70;;;;;;10405787;28;20308;-69
2021/05/22 13:48:45;;;;;;;0.87;0.80;;;20.90;27.20;;;;;;10398298;28;20324;-70
2021/05/22 13:53:49;;;;;;;1.20;0.87;;;20.90;26.80;;;;;;10395605;28;20695;-69
2021/05/22 13:58:52;;;;;;;2.43;0.90;;;20.80;26.10;;;;;;10404913;28;20221;-70
2021/05/22 14:03:55;;;;;;;0.70;0.70;;;20.70;25.80;;;;;;10400555;28;20253;-69
2021/05/22 14:08:59;;;;;;;1.90;0.70;;;20.60;26.70;;;;;;10401186;28;20269;-69
2021/05/22 14:14:01;;;;;;;0.77;0.70;;;20.60;25.70;;;;;;10395439;28;20250;-69
2021/05/22 14:19:05;;;;;;;1.17;0.80;;;20.60;25.70;;;;;;10400944;28;20226;-67
2021/05/22 14:24:09;;;;;;;1.97;0.67;;;20.60;26.40;;;;;;10381954;28;20353;-67
2021/05/22 14:29:13;;;;;;;1.03;0.70;;;20.60;25.70;;;;;;10401706;28;20306;-67
2021/05/22 14:34:15;;;;;;;1.80;1.20;;;20.60;25.70;;;;;;10383384;28;20245;-67
2021/05/22 14:39:19;;;;;;;0.93;0.80;;;20.60;25.70;;;;;;10400096;28;20248;-68
2021/05/22 14:44:22;;;;;;;0.70;0.60;;;20.60;25.70;;;;;;10406373;28;20686;-67
2021/05/22 14:49:25;;;;;;;1.00;0.60;;;20.70;25.80;;;;;;10385808;28;20491;-67
2021/05/22 14:54:28;;;;;;;1.20;0.77;;;20.70;25.80;;;;;;10408461;28;20761;-67
2021/05/22 14:59:31;;;;;;;1.13;0.70;;;20.80;25.00;;;;;;10394960;28;20280;-68
2021/05/22 15:04:34;;;;;;;0.93;0.80;;;20.90;25.50;;;;;;10384625;28;20234;-68
2021/05/22 15:09:38;;;;;;;2.07;0.70;;;21.00;25.40;;;;;;10390222;28;20673;-68
2021/05/22 15:14:40;;;;;;;1.43;0.90;;;21.00;24.70;;;;;;10379645;28;20230;-68
2021/05/22 15:19:44;;;;;;;1.23;0.90;;;21.10;25.30;;;;;;10395071;28;20686;-68
2021/05/22 15:24:47;;;;;;;1.10;0.70;;;21.10;24.80;;;;;;10388653;28;20260;-68
2021/05/22 15:29:54;;;;;;;2.50;0.80;;;21.10;24.70;;;;;;10385787;28;20229;-68
2021/05/22 15:34:58;;;;;;;4.23;0.80;;;21.00;25.60;;;;;;10383454;28;20236;-67
2021/05/22 15:40:02;;;;;;;1.30;0.80;;;21.10;24.80;;;;;;10402150;28;20313;-68
2021/05/22 15:45:07;;;;;;;1.47;0.90;;;21.10;24.60;;;;;;10390372;28;20233;-67
2021/05/22 15:56:10;;;;;;;0.80;0.80;;;21.10;24.30;;;;;;10400549;28;20656;-67
2021/05/22 16:01:12;;;;;;;2.17;0.90;;;21.10;24.20;;;;;;10383342;28;20703;-67
2021/05/22 16:06:15;;;;;;;1.93;0.80;;;21.10;24.70;;;;;;10389677;28;20325;-67
2021/05/22 16:11:19;;;;;;;2.53;0.90;;;21.10;24.70;;;;;;10388949;28;20340;-67
2021/05/22 16:16:21;;;;;;;0.80;0.80;;;21.20;24.70;;;;;;10392905;28;20325;-67
2021/05/22 16:21:25;;;;;;;1.20;1.00;;;21.30;24.60;;;;;;10366345;28;20348;-68
2021/05/22 16:26:29;;;;;;;1.50;1.10;;;21.30;24.10;;;;;;10365959;28;20226;-67
2021/05/22 16:31:32;;;;;;;0.90;0.70;;;21.40;24.00;;;;;;10365848;28;20293;-67
2021/05/22 16:36:35;;;;;;;1.10;1.00;;;21.40;24.10;;;;;;10366070;28;20321;-68
2021/05/22 16:41:39;;;;;;;2.83;0.90;;;21.30;24.00;;;;;;10365766;28;20222;-68
2021/05/22 16:46:41;;;;;;;1.73;0.90;;;21.40;24.00;;;;;;10365253;28;20234;-66
2021/05/22 16:51:44;;;;;;;1.50;0.90;;;21.40;24.00;;;;;;10364884;28;20226;-68
2021/05/22 16:56:48;;;;;;;1.30;0.80;;;21.50;24.00;;;;;;10364913;28;20256;-68
2021/05/22 17:01:51;;;;;;;0.63;0.63;;;21.50;23.90;;;;;;10365026;28;20356;-67
2021/05/22 17:06:56;;;;;;;1.03;0.60;;;21.50;23.60;;;;;;10366839;28;20232;-67
2021/05/22 17:12:00;;;;;;;2.23;0.70;;;21.60;23.80;;;;;;10370936;28;20313;-67
2021/05/22 17:17:03;;;;;;;3.03;0.90;;;21.60;23.40;;;;;;10347383;28;20257;-67
2021/05/22 17:22:05;;;;;;;1.90;0.80;;;21.60;23.60;;;;;;10347795;28;20258;-67
2021/05/22 17:27:10;;;;;;;0.83;0.60;;;21.60;23.50;;;;;;10354827;28;20230;-67
2021/05/22 17:32:13;;;;;;;1.07;0.70;;;21.60;23.20;;;;;;10348864;28;20282;-67
2021/05/22 17:37:16;;;;;;;0.80;0.70;;;21.60;23.60;;;;;;10353281;28;20609;-67
2021/05/22 17:42:19;;;;;;;0.80;0.77;;;21.50;23.20;;;;;;10348753;28;20234;-68
2021/05/22 17:47:22;;;;;;;1.10;0.80;;;21.50;23.10;;;;;;10349754;28;20301;-68
2021/05/22 17:52:25;;;;;;;1.00;0.73;;;21.40;23.00;;;;;;10346096;28;20230;-68
2021/05/22 17:57:29;;;;;;;2.03;0.80;;;21.40;23.10;;;;;;10347918;28;20246;-67
2021/05/22 18:02:32;;;;;;;0.93;0.70;;;21.40;22.80;;;;;;10347386;28;20234;-68
2021/05/22 18:07:35;;;;;;;1.10;0.70;;;21.40;23.10;;;;;;10349278;28;20634;-67
2021/05/22 18:12:39;;;;;;;0.70;0.60;;;21.30;23.10;;;;;;10350407;28;20707;-67
2021/05/22 18:17:42;;;;;;;0.93;0.60;;;21.30;22.80;;;;;;10346790;28;20230;-67
2021/05/22 18:22:45;;;;;;;0.60;0.60;;;21.20;23.00;;;;;;10350951;28;20569;-67
2021/05/22 18:27:50;;;;;;;1.50;1.00;;;21.10;22.60;;;;;;10346747;28;20613;-67
2021/05/22 18:32:53;;;;;;;4.50;3.90;;;21.00;22.50;;;;;;10351666;28;20313;-67
2021/05/22 18:37:56;;;;;;;2.03;1.83;;;20.80;22.80;;;;;;10345573;28;20305;-67
2021/05/22 18:43:01;;;;;;;1.83;1.63;;;20.70;23.00;;;;;;10352118;28;20780;-67
2021/05/22 18:48:05;;;;;;;3.03;1.67;;;20.50;23.00;;;;;;10344168;28;20222;-67
2021/05/22 18:53:07;;;;;;;1.67;1.20;;;20.50;23.60;;;;;;10344267;28;20754;-67
2021/05/22 18:58:11;;;;;;;2.13;1.40;;;20.40;23.80;;;;;;10351129;28;20309;-67
2021/05/22 19:03:14;;;;;;;1.53;1.17;;;20.40;23.90;;;;;;10342284;28;20703;-67
2021/05/22 19:08:18;;;;;;;5.50;1.43;;;20.40;24.20;;;;;;10348446;28;20313;-67
2021/05/22 19:13:22;;;;;;;2.03;1.13;;;20.30;24.40;;;;;;10345011;28;20227;-69
2021/05/22 19:18:26;;;;;;;2.03;1.30;;;20.20;24.10;;;;;;10346904;28;20318;-68
2021/05/22 19:23:28;;;;;;;2.63;1.80;;;20.10;24.40;;;;;;10346995;28;20285;-68
2021/05/22 19:28:32;;;;;;;5.20;1.83;;;20.00;24.40;;;;;;10346572;28;20289;-67
2021/05/22 19:33:35;;;;;;;1.50;1.40;;;19.80;24.60;;;;;;10351323;28;20229;-69
2021/05/22 19:38:38;;;;;;;1.60;1.50;;;19.70;24.70;;;;;;10359333;28;20795;-69
2021/05/22 19:43:42;;;;;;;2.67;1.63;;;19.50;24.70;;;;;;10382094;28;20217;-69
2021/05/22 19:48:45;;;;;;;2.07;1.70;;;19.40;24.90;;;;;;10378242;28;20261;-69
2021/05/22 19:53:49;;;;;;;2.50;1.60;;;19.20;24.80;;;;;;10382493;28;20594;-69
2021/05/22 19:58:53;;;;;;;4.00;2.80;;;19.00;24.60;;;;;;10386185;28;20299;-69
2021/05/22 20:03:56;;;;;;;5.13;3.70;;;18.90;24.60;;;;;;10379998;28;20323;-69
2021/05/22 20:08:59;;;;;;;5.07;3.50;;;18.70;24.70;;;;;;10382112;28;20794;-69
2021/05/22 20:14:03;;;;;;;6.57;2.77;;;18.50;24.90;;;;;;10383019;28;20238;-68
2021/05/22 20:19:06;;;;;;;4.50;3.87;;;18.40;25.00;;;;;;10377153;28;20344;-69
2021/05/22 20:24:10;;;;;;;4.33;2.80;;;18.10;25.20;;;;;;10371320;28;20238;-68
2021/05/22 20:29:13;;;;;;;4.50;3.50;;;17.90;25.50;;;;;;10379672;28;20238;-69
2021/05/22 20:34:16;;;;;;;4.77;3.87;;;17.70;25.80;;;;;;10373246;28;20642;-69
2021/05/22 20:39:19;;;;;;;3.50;2.70;;;17.60;26.00;;;;;;10385481;28;20261;-67
2021/05/22 20:44:23;;;;;;;5.57;4.77;;;17.40;26.00;;;;;;10391360;28;20279;-67
2021/05/22 20:49:26;;;;;;;7.43;6.37;;;17.30;26.30;;;;;;10399486;28;20253;-67
2021/05/22 20:54:29;;;;;;;8.57;7.10;;;17.20;26.40;;;;;;10392823;28;20225;-67
2021/05/22 20:59:32;;;;;;;6.27;4.67;;;17.00;26.40;;;;;;10398277;28;20836;-67
2021/05/22 21:04:35;;;;;;;4.33;3.20;;;16.90;26.60;;;;;;10393803;28;20279;-67
2021/05/22 21:09:38;;;;;;;3.57;3.27;;;16.80;26.50;;;;;;10389978;28;20349;-67
2021/05/22 21:14:42;;;;;;;2.80;2.60;;;16.70;26.50;;;;;;10401226;28;20244;-67
2021/05/22 21:19:45;;;;;;;2.63;1.90;;;16.50;26.80;;;;;;10397000;28;20226;-67
2021/05/22 21:24:47;;;;;;;1.90;1.80;;;16.40;27.00;;;;;;10389696;28;20313;-70
2021/05/22 21:29:51;;;;;;;2.00;1.87;;;16.30;27.10;;;;;;10391445;28;20256;-70
2021/05/22 21:34:54;;;;;;;1.70;1.60;;;16.30;27.50;;;;;;10389498;28;21154;-70
2021/05/22 21:39:56;;;;;;;2.50;1.63;;;16.20;27.40;;;;;;10395495;28;20714;-71
2021/05/22 21:45:00;;;;;;;1.93;1.50;;;16.10;27.40;;;;;;10380449;28;20706;-70
2021/05/22 21:50:04;;;;;;;2.27;2.00;;;16.00;27.70;;;;;;10360812;28;20305;-70
2021/05/22 21:55:08;;;;;;;3.07;1.60;;;16.00;27.70;;;;;;10367023;28;20258;-70
2021/05/22 22:00:30;;;;;;;1.47;1.37;;;16.00;27.80;;;;;;10373770;28;20699;-69
2021/05/22 22:05:34;;;;;;;3.20;1.50;;;16.00;28.50;;;;;;10356309;28;20246;-69
2021/05/22 22:10:37;;;;;;;1.80;1.60;;;16.00;28.00;;;;;;10365936;28;20246;-69
2021/05/22 22:15:40;;;;;;;2.10;1.40;;;15.90;28.00;;;;;;10371850;28;20313;-71
2021/05/22 22:20:47;;;;;;;2.03;1.60;;;15.90;28.20;;;;;;10357787;28;20226;-70
2021/05/22 22:25:51;;;;;;;1.67;1.57;;;15.80;28.30;;;;;;10372290;28;20268;-70
2021/05/22 22:30:55;;;;;;;1.87;1.43;;;15.70;28.10;;;;;;10375405;28;20242;-70
2021/05/22 22:36:04;;;;;;;1.37;1.27;;;15.60;28.30;;;;;;10385842;28;20308;-70
2021/05/22 22:41:07;;;;;;;1.63;1.50;;;15.50;28.20;;;;;;10387897;28;20666;-70
2021/05/22 22:46:11;;;;;;;2.70;1.70;;;15.40;28.20;;;;;;10381743;28;20241;-71
2021/05/22 22:51:14;;;;;;;1.67;1.57;;;15.40;28.50;;;;;;10391234;28;20328;-70
2021/05/22 22:56:19;;;;;;;2.37;1.40;;;15.30;28.30;;;;;;10384894;28;20303;-70
2021/05/22 23:01:22;;;;;;;1.80;1.40;;;15.10;28.80;;;;;;10403478;28;20229;-70
2021/05/22 23:06:25;;;;;;;2.20;1.53;;;15.00;28.80;;;;;;10387312;28;20267;-70
2021/05/22 23:11:28;;;;;;;3.40;1.50;;;14.90;28.80;;;;;;10389178;28;20312;-70
2021/05/22 23:16:32;;;;;;;2.43;1.53;;;14.90;28.70;;;;;;10391925;28;20225;-69
2021/05/22 23:21:34;;;;;;;2.27;1.80;;;14.80;29.10;;;;;;10391070;28;20229;-69
2021/05/22 23:26:38;;;;;;;1.47;1.37;;;14.70;29.00;;;;;;10389658;28;20234;-70
2021/05/22 23:31:41;;;;;;;1.40;1.30;;;14.60;29.10;;;;;;10372783;28;20864;-70
2021/05/22 23:36:44;;;;;;;3.03;1.63;;;14.50;29.30;;;;;;10361013;28;20660;-70
2021/05/22 23:41:47;;;;;;;1.60;1.50;;;14.60;29.40;;;;;;10366004;28;20218;-69
2021/05/22 23:46:50;;;;;;;1.67;1.50;;;14.50;29.40;;;;;;10358275;28;20330;-70
2021/05/22 23:51:53;;;;;;;2.60;1.90;;;14.50;29.70;;;;;;10357174;28;20230;-69
2021/05/22 23:56:56;;;;;;;1.87;1.70;;;14.40;29.50;;;;;;10370353;28;20229;-70
